Time;durP1;ratioP1;P1;durP2;ratioP2;P2;SDS_P1;SDS_P2;PMS_P1;PMS_P2;Temp;Humidity;BMP_temperature;BMP_pressure;BME280_temperature;BME280_humidity;BME280_pressure;Samples;Min_cycle;Max_cycle;Signal;HPM_P1;HPM_P2
2023/10/19 00:00:19;;;;;;;6.13;5.17;;;;;;;;;;5050527;28;20321;-82
2023/10/19 00:02:47;;;;;;;6.37;5.47;;;;;;;;;;5049974;28;20209;-82
2023/10/19 00:05:15;;;;;;;7.67;5.73;;;;;;;;;;5050509;28;20202;-81
2023/10/19 00:07:41;;;;;;;7.13;5.43;;;;;;;;;;5050584;28;20574;-82
2023/10/19 00:10:09;;;;;;;5.67;5.00;;;;;;;;;;5049882;28;20251;-82
2023/10/19 00:12:37;;;;;;;6.40;5.23;;;;;;;;;;5050641;28;20205;-82
2023/10/19 00:15:05;;;;;;;7.13;5.10;;;;;;;;;;5054871;28;20255;-82
2023/10/19 00:17:32;;;;;;;6.77;5.73;;;;;;;;;;5055628;28;20205;-81
2023/10/19 00:20:27;;;;;;;7.43;5.97;;;;;;;;;;5050137;28;20229;-82
2023/10/19 00:22:53;;;;;;;8.67;5.43;;;;;;;;;;5061370;28;20231;-82
2023/10/19 00:25:23;;;;;;;6.43;5.43;;;;;;;;;;5045319;28;20242;-82
2023/10/19 00:27:50;;;;;;;6.07;5.47;;;;;;;;;;5050113;28;20208;-81
2023/10/19 00:30:23;;;;;;;8.47;6.20;;;;;;;;;;5049987;28;20252;-82
2023/10/19 00:32:52;;;;;;;10.10;6.57;;;;;;;;;;5050221;28;20198;-82
2023/10/19 00:35:28;;;;;;;11.83;6.60;;;;;;;;;;5049899;28;20233;-82
2023/10/19 00:38:18;;;;;;;8.63;6.67;;;;;;;;;;5049813;28;20218;-81
2023/10/19 00:40:47;;;;;;;8.03;7.20;;;;;;;;;;5048663;28;20226;-82
2023/10/19 00:43:17;;;;;;;10.60;7.13;;;;;;;;;;5045502;28;20226;-81
2023/10/19 00:45:47;;;;;;;9.03;6.27;;;;;;;;;;5049194;28;20234;-82
2023/10/19 00:48:17;;;;;;;9.47;6.83;;;;;;;;;;5056591;28;20230;-81
2023/10/19 00:50:52;;;;;;;11.07;7.40;;;;;;;;;;5052874;28;20229;-81
2023/10/19 00:53:19;;;;;;;9.00;6.80;;;;;;;;;;5065199;28;20288;-82
2023/10/19 00:55:47;;;;;;;9.23;7.50;;;;;;;;;;5053078;28;20605;-82
2023/10/19 00:58:17;;;;;;;9.67;6.63;;;;;;;;;;5061678;28;20222;-81
2023/10/19 01:00:49;;;;;;;8.50;7.00;;;;;;;;;;5041817;28;20235;-81
2023/10/19 01:03:17;;;;;;;9.07;7.13;;;;;;;;;;5060983;28;20566;-81
2023/10/19 01:05:49;;;;;;;8.90;6.67;;;;;;;;;;5063983;28;20735;-81
2023/10/19 01:08:23;;;;;;;8.27;6.60;;;;;;;;;;5052200;28;20226;-81
2023/10/19 01:10:52;;;;;;;6.90;6.20;;;;;;;;;;5049792;28;20228;-82
2023/10/19 01:13:26;;;;;;;8.50;6.73;;;;;;;;;;5052890;28;20238;-81
2023/10/19 01:15:55;;;;;;;7.47;6.30;;;;;;;;;;5052764;28;20838;-82
2023/10/19 01:18:29;;;;;;;8.53;6.20;;;;;;;;;;5052913;28;20226;-81
2023/10/19 01:20:56;;;;;;;8.00;6.30;;;;;;;;;;5052042;28;20308;-81
2023/10/19 01:23:27;;;;;;;7.93;6.90;;;;;;;;;;5053331;28;20695;-81
2023/10/19 01:26:05;;;;;;;8.27;6.00;;;;;;;;;;5052551;28;20237;-82
2023/10/19 01:28:43;;;;;;;8.00;6.57;;;;;;;;;;5052995;28;20259;-81
2023/10/19 01:31:14;;;;;;;8.50;6.07;;;;;;;;;;5048417;28;20708;-81
2023/10/19 01:33:43;;;;;;;9.50;6.77;;;;;;;;;;5049976;28;20661;-82
2023/10/19 01:36:25;;;;;;;9.80;7.00;;;;;;;;;;5045955;28;20247;-82
2023/10/19 01:38:54;;;;;;;8.17;6.43;;;;;;;;;;5052309;28;20226;-82
2023/10/19 01:41:21;;;;;;;12.60;7.47;;;;;;;;;;5051998;28;20308;-82
2023/10/19 01:43:53;;;;;;;7.60;6.67;;;;;;;;;;5052590;28;20202;-82
2023/10/19 01:46:24;;;;;;;9.10;7.03;;;;;;;;;;5046941;28;20226;-82
2023/10/19 01:48:55;;;;;;;7.50;6.50;;;;;;;;;;5052635;28;20222;-82
2023/10/19 01:51:22;;;;;;;7.50;6.70;;;;;;;;;;5052128;28;20237;-82
2023/10/19 01:53:50;;;;;;;8.70;6.47;;;;;;;;;;5052678;28;20202;-82
2023/10/19 01:56:18;;;;;;;9.13;6.80;;;;;;;;;;5052008;28;20245;-81
2023/10/19 01:58:46;;;;;;;8.17;6.40;;;;;;;;;;5051464;28;20237;-82
2023/10/19 02:01:20;;;;;;;8.27;5.80;;;;;;;;;;5051797;28;20225;-82
2023/10/19 02:03:47;;;;;;;11.80;6.20;;;;;;;;;;5052217;28;20202;-82
2023/10/19 02:06:19;;;;;;;7.33;5.80;;;;;;;;;;5052301;28;20233;-82
2023/10/19 02:08:48;;;;;;;9.23;5.77;;;;;;;;;;5052206;28;20305;-82
2023/10/19 02:11:18;;;;;;;9.20;6.13;;;;;;;;;;5051196;28;20313;-82
2023/10/19 02:13:47;;;;;;;7.93;6.27;;;;;;;;;;5052376;28;20225;-82
2023/10/19 02:16:15;;;;;;;5.47;4.57;;;;;;;;;;5051729;28;20234;-82
2023/10/19 02:18:42;;;;;;;7.67;5.60;;;;;;;;;;5051795;28;20712;-82
2023/10/19 02:21:11;;;;;;;8.17;5.97;;;;;;;;;;5051244;28;20317;-82
2023/10/19 02:23:38;;;;;;;7.93;5.80;;;;;;;;;;5049100;28;20945;-82
2023/10/19 02:26:05;;;;;;;7.47;5.50;;;;;;;;;;5040574;28;20712;-82
2023/10/19 02:28:31;;;;;;;9.13;6.17;;;;;;;;;;5052024;28;20233;-82
2023/10/19 02:31:11;;;;;;;8.97;6.03;;;;;;;;;;5050840;28;20226;-82
2023/10/19 02:33:37;;;;;;;7.83;5.83;;;;;;;;;;5051891;28;20260;-82
2023/10/19 02:36:07;;;;;;;8.40;5.83;;;;;;;;;;5051280;28;20265;-82
2023/10/19 02:38:35;;;;;;;7.70;5.93;;;;;;;;;;5051742;28;20233;-82
2023/10/19 02:41:03;;;;;;;7.23;6.03;;;;;;;;;;5050681;28;20605;-82
2023/10/19 02:43:32;;;;;;;6.93;5.47;;;;;;;;;;5051685;28;20233;-82
2023/10/19 02:46:02;;;;;;;6.10;4.97;;;;;;;;;;5050949;28;20233;-82
2023/10/19 02:48:28;;;;;;;8.40;4.40;;;;;;;;;;5051809;28;20228;-82
2023/10/19 02:50:55;;;;;;;6.60;5.20;;;;;;;;;;5045452;28;20233;-82
2023/10/19 02:53:21;;;;;;;7.03;4.97;;;;;;;;;;5051692;28;20206;-82
2023/10/19 02:55:51;;;;;;;8.53;5.27;;;;;;;;;;5050824;28;20237;-82
2023/10/19 02:58:17;;;;;;;8.33;5.90;;;;;;;;;;5051078;28;20309;-82
2023/10/19 03:00:45;;;;;;;4.63;4.10;;;;;;;;;;5050241;28;20312;-82
2023/10/19 03:03:14;;;;;;;7.50;4.50;;;;;;;;;;5051565;28;20665;-82
2023/10/19 03:05:41;;;;;;;5.03;4.53;;;;;;;;;;5050598;28;20288;-82
2023/10/19 03:08:07;;;;;;;8.67;5.10;;;;;;;;;;5051140;28;20225;-81
2023/10/19 03:10:41;;;;;;;6.23;4.37;;;;;;;;;;5049721;28;20226;-81
2023/10/19 03:13:08;;;;;;;6.17;4.70;;;;;;;;;;5051257;28;20193;-82
2023/10/19 03:15:35;;;;;;;10.53;6.33;;;;;;;;;;5051098;28;20577;-81
2023/10/19 03:18:01;;;;;;;13.30;5.87;;;;;;;;;;5050879;28;20213;-81
2023/10/19 03:20:33;;;;;;;8.77;5.50;;;;;;;;;;5051099;28;20234;-82
2023/10/19 03:23:01;;;;;;;8.13;5.60;;;;;;;;;;5052002;28;20225;-81
2023/10/19 03:25:55;;;;;;;8.97;5.67;;;;;;;;;;5051050;28;20231;-81
2023/10/19 03:28:25;;;;;;;9.50;5.87;;;;;;;;;;5045275;28;20603;-81
2023/10/19 03:30:55;;;;;;;11.63;6.77;;;;;;;;;;5050687;28;20237;-82
2023/10/19 03:33:26;;;;;;;10.13;6.57;;;;;;;;;;5051186;28;20210;-82
2023/10/19 03:35:55;;;;;;;9.97;6.63;;;;;;;;;;5050865;28;20226;-81
2023/10/19 03:38:22;;;;;;;11.77;6.73;;;;;;;;;;5050958;28;20614;-82
2023/10/19 03:40:58;;;;;;;8.93;5.97;;;;;;;;;;5050639;28;20234;-82
2023/10/19 03:43:27;;;;;;;10.80;6.13;;;;;;;;;;5050567;28;20217;-81
2023/10/19 03:45:54;;;;;;;10.00;6.67;;;;;;;;;;5049733;28;20226;-81
2023/10/19 03:48:26;;;;;;;10.77;6.20;;;;;;;;;;5050684;28;20881;-80
2023/10/19 03:50:55;;;;;;;11.77;6.70;;;;;;;;;;5047526;28;20324;-80
2023/10/19 03:53:22;;;;;;;10.60;6.63;;;;;;;;;;5054275;28;20221;-79
2023/10/19 03:55:50;;;;;;;12.53;6.80;;;;;;;;;;5053257;28;20246;-80
2023/10/19 03:58:20;;;;;;;17.00;7.43;;;;;;;;;;5053756;28;20700;-80
2023/10/19 04:00:48;;;;;;;13.60;6.93;;;;;;;;;;5052976;28;20278;-80
2023/10/19 04:03:17;;;;;;;13.17;6.93;;;;;;;;;;5054034;28;20210;-84
2023/10/19 04:05:46;;;;;;;12.67;6.73;;;;;;;;;;5062514;28;20225;-81
2023/10/19 04:08:19;;;;;;;11.33;7.03;;;;;;;;;;5056288;28;20707;-81
2023/10/19 04:11:07;;;;;;;14.13;7.43;;;;;;;;;;5048696;28;20237;-81
2023/10/19 04:13:34;;;;;;;12.70;6.47;;;;;;;;;;5051097;28;20241;-82
2023/10/19 04:16:01;;;;;;;10.20;7.03;;;;;;;;;;5050581;28;20230;-82
2023/10/19 04:18:28;;;;;;;11.83;6.53;;;;;;;;;;5054237;28;20229;-83
2023/10/19 04:20:57;;;;;;;6.83;5.03;;;;;;;;;;5048468;28;20253;-83
2023/10/19 04:23:27;;;;;;;8.53;5.43;;;;;;;;;;5054273;28;20730;-82
2023/10/19 04:25:58;;;;;;;12.10;6.57;;;;;;;;;;5054053;28;20229;-83
2023/10/19 04:28:31;;;;;;;11.73;7.33;;;;;;;;;;5054520;28;20229;-82
2023/10/19 04:31:02;;;;;;;12.30;7.07;;;;;;;;;;5053970;28;20234;-84
2023/10/19 04:33:30;;;;;;;15.83;7.73;;;;;;;;;;5054367;28;20208;-84
2023/10/19 04:35:59;;;;;;;16.27;8.00;;;;;;;;;;5053699;28;20226;-83
2023/10/19 04:38:30;;;;;;;10.73;6.47;;;;;;;;;;5053939;28;20241;-82
2023/10/19 04:41:07;;;;;;;12.97;6.90;;;;;;;;;;5053275;28;20256;-83
2023/10/19 04:43:34;;;;;;;11.67;7.13;;;;;;;;;;5049448;28;20205;-81
2023/10/19 04:46:07;;;;;;;11.90;7.33;;;;;;;;;;5053688;28;20234;-81
2023/10/19 04:48:35;;;;;;;16.90;7.50;;;;;;;;;;5054190;28;20272;-81
2023/10/19 04:51:03;;;;;;;10.80;6.47;;;;;;;;;;5053485;28;20313;-82
2023/10/19 04:53:33;;;;;;;12.77;7.17;;;;;;;;;;5049817;28;20257;-81
2023/10/19 04:56:00;;;;;;;14.77;7.87;;;;;;;;;;5053701;28;20272;-82
2023/10/19 04:58:28;;;;;;;12.00;7.63;;;;;;;;;;5053857;28;20280;-82
2023/10/19 05:00:55;;;;;;;12.93;7.43;;;;;;;;;;5053371;28;20234;-82
2023/10/19 05:03:22;;;;;;;14.63;7.70;;;;;;;;;;5053977;28;20590;-81
2023/10/19 05:05:49;;;;;;;12.13;8.60;;;;;;;;;;5053469;28;20226;-81
2023/10/19 05:08:16;;;;;;;14.80;8.43;;;;;;;;;;5054159;28;20226;-81
2023/10/19 05:10:44;;;;;;;11.83;7.97;;;;;;;;;;5053116;28;20230;-81
2023/10/19 05:13:11;;;;;;;14.83;8.17;;;;;;;;;;5053938;28;20281;-83
2023/10/19 05:15:39;;;;;;;9.30;7.30;;;;;;;;;;5052962;28;20919;-83
2023/10/19 05:18:06;;;;;;;12.77;7.80;;;;;;;;;;5053593;28;20226;-83
2023/10/19 05:20:33;;;;;;;13.30;7.97;;;;;;;;;;5052875;28;20244;-83
2023/10/19 05:23:00;;;;;;;12.53;7.77;;;;;;;;;;5053674;28;20214;-83
2023/10/19 05:25:28;;;;;;;10.93;7.20;;;;;;;;;;5053438;28;20314;-83
2023/10/19 05:27:56;;;;;;;12.63;7.60;;;;;;;;;;5053449;28;20576;-83
2023/10/19 05:30:23;;;;;;;11.67;7.80;;;;;;;;;;5053047;28;20240;-83
2023/10/19 05:32:50;;;;;;;11.63;8.27;;;;;;;;;;5052112;28;20206;-83
2023/10/19 05:35:22;;;;;;;10.87;7.87;;;;;;;;;;5052711;28;20214;-82
2023/10/19 05:37:50;;;;;;;11.80;8.20;;;;;;;;;;5052562;28;20264;-83
2023/10/19 05:40:18;;;;;;;11.90;7.40;;;;;;;;;;5052501;28;20214;-83
2023/10/19 05:42:46;;;;;;;8.13;6.83;;;;;;;;;;5052714;28;20206;-82
2023/10/19 05:45:16;;;;;;;9.57;6.50;;;;;;;;;;5052830;28;20256;-82
2023/10/19 05:47:44;;;;;;;8.53;6.63;;;;;;;;;;5052970;28;20212;-82
2023/10/19 05:50:14;;;;;;;10.53;6.53;;;;;;;;;;5052596;28;20626;-82
2023/10/19 05:52:42;;;;;;;10.73;6.60;;;;;;;;;;5052816;28;20664;-82
2023/10/19 05:55:10;;;;;;;7.47;6.40;;;;;;;;;;5052436;28;20372;-82
2023/10/19 05:57:40;;;;;;;9.00;6.93;;;;;;;;;;5052776;28;20226;-82
2023/10/19 06:00:12;;;;;;;8.83;6.60;;;;;;;;;;5052197;28;20246;-82
2023/10/19 06:02:40;;;;;;;11.53;7.13;;;;;;;;;;5052668;28;20206;-82
2023/10/19 06:05:07;;;;;;;11.30;8.33;;;;;;;;;;5052409;28;20209;-82
2023/10/19 06:07:34;;;;;;;11.37;7.60;;;;;;;;;;5052948;28;20230;-82
2023/10/19 06:10:04;;;;;;;11.57;7.27;;;;;;;;;;5052613;28;20727;-82
2023/10/19 06:12:31;;;;;;;10.70;7.40;;;;;;;;;;5052554;28;20230;-81
2023/10/19 06:15:00;;;;;;;11.00;7.27;;;;;;;;;;5052682;28;20209;-81
2023/10/19 06:17:27;;;;;;;10.70;7.53;;;;;;;;;;5052071;28;20234;-81
2023/10/19 06:19:56;;;;;;;10.43;7.00;;;;;;;;;;5052376;28;20221;-81
2023/10/19 06:22:23;;;;;;;9.37;6.90;;;;;;;;;;5052011;28;20234;-81
2023/10/19 06:24:51;;;;;;;10.07;6.90;;;;;;;;;;5052697;28;20585;-81
2023/10/19 06:27:18;;;;;;;8.63;7.00;;;;;;;;;;5052335;28;20226;-81
2023/10/19 06:29:45;;;;;;;10.40;7.70;;;;;;;;;;5052277;28;20317;-81
2023/10/19 06:32:14;;;;;;;10.00;7.90;;;;;;;;;;5052028;28;20230;-81
2023/10/19 06:34:41;;;;;;;10.60;7.20;;;;;;;;;;5052414;28;20208;-81
2023/10/19 06:37:10;;;;;;;10.53;7.13;;;;;;;;;;5051854;28;20245;-81
2023/10/19 06:39:40;;;;;;;12.23;6.83;;;;;;;;;;5052349;28;20234;-81
2023/10/19 06:42:09;;;;;;;11.23;6.77;;;;;;;;;;5051702;28;20676;-81
2023/10/19 06:44:37;;;;;;;9.87;6.97;;;;;;;;;;5052143;28;20202;-82
2023/10/19 06:47:06;;;;;;;13.60;7.13;;;;;;;;;;5051568;28;20239;-81
2023/10/19 06:49:34;;;;;;;10.53;7.47;;;;;;;;;;5052161;28;20229;-81
2023/10/19 06:52:04;;;;;;;8.80;6.60;;;;;;;;;;5051071;28;20645;-81
2023/10/19 06:54:33;;;;;;;9.70;7.67;;;;;;;;;;5051801;28;20649;-81
2023/10/19 06:57:02;;;;;;;10.10;6.90;;;;;;;;;;5051322;28;20264;-81
2023/10/19 06:59:32;;;;;;;12.23;7.93;;;;;;;;;;5051892;28;20265;-81
2023/10/19 07:02:01;;;;;;;9.43;7.47;;;;;;;;;;5051046;28;20246;-81
2023/10/19 07:04:28;;;;;;;11.50;7.90;;;;;;;;;;5052075;28;20214;-81
2023/10/19 07:06:55;;;;;;;14.03;8.80;;;;;;;;;;5051270;28;20712;-81
2023/10/19 07:09:22;;;;;;;15.57;8.70;;;;;;;;;;5051731;28;20222;-81
2023/10/19 07:11:53;;;;;;;12.43;8.10;;;;;;;;;;5050937;28;20232;-81
2023/10/19 07:14:22;;;;;;;14.30;7.97;;;;;;;;;;5044071;28;20205;-81
2023/10/19 07:16:49;;;;;;;15.53;8.37;;;;;;;;;;5050937;28;20288;-82
2023/10/19 07:19:16;;;;;;;16.77;9.87;;;;;;;;;;5051415;28;20233;-82
2023/10/19 07:21:48;;;;;;;11.23;7.97;;;;;;;;;;5050960;28;20271;-82
2023/10/19 07:24:15;;;;;;;21.53;8.50;;;;;;;;;;5051866;28;20296;-82
2023/10/19 07:26:51;;;;;;;11.97;7.97;;;;;;;;;;5051034;28;20236;-81
2023/10/19 07:29:19;;;;;;;16.47;8.83;;;;;;;;;;5051605;28;20225;-81
2023/10/19 07:31:46;;;;;;;14.67;7.80;;;;;;;;;;5050554;28;20726;-81
2023/10/19 07:34:15;;;;;;;15.07;9.00;;;;;;;;;;5051353;28;20205;-80
2023/10/19 07:36:43;;;;;;;14.37;9.03;;;;;;;;;;5050911;28;20261;-82
2023/10/19 07:39:18;;;;;;;12.53;7.07;;;;;;;;;;5044587;28;20732;-81
2023/10/19 07:41:46;;;;;;;16.50;6.60;;;;;;;;;;5045815;28;20233;-81
2023/10/19 07:44:13;;;;;;;12.57;8.07;;;;;;;;;;5050990;28;20230;-81
2023/10/19 07:46:42;;;;;;;12.07;7.50;;;;;;;;;;5049988;28;20308;-81
2023/10/19 07:49:14;;;;;;;13.30;7.33;;;;;;;;;;5050162;28;20229;-81
2023/10/19 07:51:41;;;;;;;20.77;7.60;;;;;;;;;;5050098;28;20231;-81
2023/10/19 07:54:08;;;;;;;13.80;7.97;;;;;;;;;;5050567;28;20213;-81
2023/10/19 07:56:36;;;;;;;12.40;6.80;;;;;;;;;;5050884;28;20230;-82
2023/10/19 07:59:03;;;;;;;9.57;6.70;;;;;;;;;;5054209;28;20230;-81
2023/10/19 08:01:31;;;;;;;12.77;6.63;;;;;;;;;;5053256;28;20222;-80
2023/10/19 08:04:00;;;;;;;12.93;7.30;;;;;;;;;;5054510;28;20217;-81
2023/10/19 08:06:27;;;;;;;13.03;8.27;;;;;;;;;;5054860;28;20272;-81
2023/10/19 08:08:55;;;;;;;13.10;7.50;;;;;;;;;;5054052;28;20264;-81
2023/10/19 08:11:22;;;;;;;9.40;5.87;;;;;;;;;;5053908;28;20232;-81
2023/10/19 08:13:49;;;;;;;9.73;6.07;;;;;;;;;;5054397;28;20197;-82
2023/10/19 08:16:17;;;;;;;13.43;6.53;;;;;;;;;;5053840;28;20583;-81
2023/10/19 08:18:44;;;;;;;12.93;7.00;;;;;;;;;;5053963;28;20859;-81
2023/10/19 08:21:13;;;;;;;14.60;7.33;;;;;;;;;;5053373;28;20610;-81
2023/10/19 08:23:40;;;;;;;14.93;7.73;;;;;;;;;;5054155;28;20202;-81
2023/10/19 08:26:08;;;;;;;11.00;5.97;;;;;;;;;;5053843;28;20577;-81
2023/10/19 08:28:36;;;;;;;7.70;5.47;;;;;;;;;;5054150;28;20217;-81
2023/10/19 08:31:05;;;;;;;7.97;4.90;;;;;;;;;;5049535;28;20325;-81
2023/10/19 08:33:33;;;;;;;6.53;4.83;;;;;;;;;;5055053;28;20204;-81
2023/10/19 08:36:00;;;;;;;9.30;5.33;;;;;;;;;;5053734;28;20615;-81
2023/10/19 08:38:29;;;;;;;5.70;4.80;;;;;;;;;;5053682;28;20634;-80
2023/10/19 08:40:56;;;;;;;10.63;5.90;;;;;;;;;;5049655;28;20283;-81
2023/10/19 08:43:24;;;;;;;7.53;5.93;;;;;;;;;;5046427;28;20198;-81
2023/10/19 08:45:51;;;;;;;7.57;5.17;;;;;;;;;;5053407;28;20236;-81
2023/10/19 08:48:18;;;;;;;5.40;4.37;;;;;;;;;;5053831;28;20226;-81
2023/10/19 08:50:46;;;;;;;6.63;4.37;;;;;;;;;;5053320;28;20719;-81
2023/10/19 08:53:14;;;;;;;10.93;4.83;;;;;;;;;;5054498;28;20198;-81
2023/10/19 08:55:43;;;;;;;7.20;4.47;;;;;;;;;;5053821;28;20316;-81
2023/10/19 08:58:10;;;;;;;9.73;4.80;;;;;;;;;;5053842;28;20283;-80
2023/10/19 09:00:48;;;;;;;4.37;3.80;;;;;;;;;;5053594;28;20230;-81
2023/10/19 09:03:16;;;;;;;7.80;5.00;;;;;;;;;;5053196;28;20222;-80
2023/10/19 09:05:43;;;;;;;6.93;3.63;;;;;;;;;;5053730;28;20279;-81
2023/10/19 09:08:11;;;;;;;6.00;4.27;;;;;;;;;;5053081;28;20218;-80
2023/10/19 09:10:38;;;;;;;4.47;2.83;;;;;;;;;;5053280;28;20229;-80
2023/10/19 09:13:08;;;;;;;5.93;3.67;;;;;;;;;;5053719;28;20202;-81
2023/10/19 09:15:36;;;;;;;3.90;3.30;;;;;;;;;;5053512;28;20226;-81
2023/10/19 09:18:14;;;;;;;3.70;2.43;;;;;;;;;;5052347;28;20755;-81
2023/10/19 09:20:42;;;;;;;2.50;2.27;;;;;;;;;;5052739;28;20233;-80
2023/10/19 09:23:09;;;;;;;4.40;2.07;;;;;;;;;;5054920;28;20201;-80
2023/10/19 09:25:36;;;;;;;2.20;1.80;;;;;;;;;;5054084;28;20226;-80
2023/10/19 09:28:03;;;;;;;3.77;2.50;;;;;;;;;;5054617;28;20202;-80
2023/10/19 09:30:32;;;;;;;2.10;1.90;;;;;;;;;;5063395;28;20214;-81
2023/10/19 09:33:00;;;;;;;5.63;2.10;;;;;;;;;;5070702;28;20324;-80
2023/10/19 09:35:27;;;;;;;3.40;2.00;;;;;;;;;;5048827;28;20757;-81
2023/10/19 09:37:56;;;;;;;5.63;2.13;;;;;;;;;;5050065;28;20226;-81
2023/10/19 09:40:24;;;;;;;3.20;2.13;;;;;;;;;;5050623;28;20257;-81
2023/10/19 09:42:55;;;;;;;3.80;1.47;;;;;;;;;;5050559;28;20736;-81
2023/10/19 09:45:24;;;;;;;2.70;1.50;;;;;;;;;;5050591;28;20214;-81
2023/10/19 09:47:54;;;;;;;3.37;1.60;;;;;;;;;;5050879;28;20564;-81
2023/10/19 09:50:21;;;;;;;2.53;1.65;;;;;;;;;;5050692;28;20301;-81
2023/10/19 09:52:48;;;;;;;1.67;1.50;;;;;;;;;;5050790;28;20217;-81
2023/10/19 09:55:19;;;;;;;4.82;1.73;;;;;;;;;;5051795;28;20213;-81
2023/10/19 09:57:48;;;;;;;1.70;1.60;;;;;;;;;;5051741;28;20226;-82
2023/10/19 10:00:23;;;;;;;1.55;1.33;;;;;;;;;;5051637;28;20212;-81
2023/10/19 10:02:50;;;;;;;5.30;1.73;;;;;;;;;;5051546;28;20703;-81
2023/10/19 10:05:35;;;;;;;4.38;1.63;;;;;;;;;;5051498;28;20210;-81
2023/10/19 10:08:17;;;;;;;3.55;1.35;;;;;;;;;;5051827;28;20267;-81
2023/10/19 10:10:46;;;;;;;2.80;1.65;;;;;;;;;;5044864;28;20755;-82
2023/10/19 10:13:34;;;;;;;2.05;1.63;;;;;;;;;;5051970;28;20217;-81
2023/10/19 10:16:03;;;;;;;4.18;1.35;;;;;;;;;;5051120;28;20763;-82
2023/10/19 10:18:31;;;;;;;1.80;1.20;;;;;;;;;;5051715;28;20226;-82
2023/10/19 10:21:08;;;;;;;1.60;1.45;;;;;;;;;;5050740;28;20237;-82
2023/10/19 10:23:42;;;;;;;1.33;1.23;;;;;;;;;;5044248;28;20723;-82
2023/10/19 10:26:10;;;;;;;2.85;1.60;;;;;;;;;;5051137;28;20290;-82
2023/10/19 10:28:38;;;;;;;2.88;1.55;;;;;;;;;;5051350;28;20229;-82
2023/10/19 10:31:14;;;;;;;1.65;1.02;;;;;;;;;;5050508;28;20234;-82
2023/10/19 10:33:46;;;;;;;2.00;1.30;;;;;;;;;;5051548;28;20202;-80
2023/10/19 10:36:13;;;;;;;2.50;1.50;;;;;;;;;;5050868;28;20700;-82
2023/10/19 10:38:40;;;;;;;1.88;1.42;;;;;;;;;;5051203;28;20238;-82
2023/10/19 10:41:10;;;;;;;4.65;1.70;;;;;;;;;;5046704;28;20226;-82
2023/10/19 10:43:52;;;;;;;1.95;1.15;;;;;;;;;;5051031;28;20202;-83
2023/10/19 10:46:19;;;;;;;3.13;1.20;;;;;;;;;;5051101;28;20230;-83
2023/10/19 10:48:48;;;;;;;1.67;1.58;;;;;;;;;;5051307;28;20214;-83
2023/10/19 10:51:18;;;;;;;4.68;1.65;;;;;;;;;;5051147;28;20233;-83
2023/10/19 10:53:47;;;;;;;2.42;1.60;;;;;;;;;;5051467;28;20708;-83
2023/10/19 10:56:14;;;;;;;4.03;1.60;;;;;;;;;;5051356;28;20252;-82
2023/10/19 10:58:42;;;;;;;3.47;1.30;;;;;;;;;;5051162;28;20758;-83
2023/10/19 11:01:11;;;;;;;1.50;1.30;;;;;;;;;;5050940;28;20291;-82
2023/10/19 11:03:38;;;;;;;1.08;1.00;;;;;;;;;;5051497;28;20198;-82
2023/10/19 11:06:07;;;;;;;2.28;1.40;;;;;;;;;;5051021;28;20225;-77
2023/10/19 11:08:34;;;;;;;1.48;1.30;;;;;;;;;;5051303;28;20252;-77
2023/10/19 11:11:04;;;;;;;1.20;1.10;;;;;;;;;;5050629;28;20313;-77
2023/10/19 11:13:34;;;;;;;1.58;1.20;;;;;;;;;;5051451;28;20203;-77
2023/10/19 11:16:01;;;;;;;2.15;1.17;;;;;;;;;;5050663;28;20230;-82
2023/10/19 11:18:35;;;;;;;2.38;1.13;;;;;;;;;;5051066;28;20222;-82
2023/10/19 11:21:06;;;;;;;2.40;1.58;;;;;;;;;;5050404;28;20558;-82
2023/10/19 11:23:40;;;;;;;5.28;1.67;;;;;;;;;;5051645;28;20198;-82
2023/10/19 11:26:07;;;;;;;0.93;0.93;;;;;;;;;;5050655;28;20249;-82
2023/10/19 11:28:38;;;;;;;2.25;1.10;;;;;;;;;;5051032;28;20245;-82
2023/10/19 11:31:12;;;;;;;2.25;1.33;;;;;;;;;;5049515;28;20599;-82
2023/10/19 11:33:42;;;;;;;5.18;1.48;;;;;;;;;;5043860;28;20206;-82
2023/10/19 11:36:12;;;;;;;1.98;1.10;;;;;;;;;;5050823;28;20581;-83
2023/10/19 11:38:39;;;;;;;1.42;1.33;;;;;;;;;;5050607;28;20252;-82
2023/10/19 11:41:07;;;;;;;1.42;1.20;;;;;;;;;;5050440;28;20224;-83
2023/10/19 11:43:35;;;;;;;3.35;1.65;;;;;;;;;;5051142;28;20202;-82
2023/10/19 11:46:04;;;;;;;4.63;1.20;;;;;;;;;;5050486;28;20291;-82
2023/10/19 11:48:31;;;;;;;1.63;1.52;;;;;;;;;;5051000;28;20221;-82
2023/10/19 11:51:00;;;;;;;1.27;1.23;;;;;;;;;;5050640;28;20226;-82
2023/10/19 11:53:29;;;;;;;2.22;1.50;;;;;;;;;;5050843;28;20213;-83
2023/10/19 11:55:56;;;;;;;1.30;1.20;;;;;;;;;;5050373;28;20226;-82
2023/10/19 11:58:23;;;;;;;2.80;1.73;;;;;;;;;;5050548;28;20862;-82
2023/10/19 12:00:51;;;;;;;2.58;1.50;;;;;;;;;;5050313;28;20226;-83
2023/10/19 12:03:19;;;;;;;2.47;1.42;;;;;;;;;;5050879;28;20288;-83
2023/10/19 12:05:47;;;;;;;3.75;1.60;;;;;;;;;;5050222;28;20226;-83
2023/10/19 12:08:15;;;;;;;2.55;1.50;;;;;;;;;;5050732;28;20305;-83
2023/10/19 12:10:42;;;;;;;2.38;1.42;;;;;;;;;;5049961;28;20230;-82
2023/10/19 12:13:09;;;;;;;2.92;1.60;;;;;;;;;;5050785;28;20206;-83
2023/10/19 12:15:36;;;;;;;1.90;1.40;;;;;;;;;;5050257;28;20344;-82
2023/10/19 12:18:05;;;;;;;5.00;4.03;;;;;;;;;;5050372;28;20312;-82
2023/10/19 12:20:32;;;;;;;4.20;2.35;;;;;;;;;;5049775;28;20226;-83
2023/10/19 12:23:00;;;;;;;3.28;2.20;;;;;;;;;;5050564;28;20214;-82
2023/10/19 12:25:32;;;;;;;1.60;1.50;;;;;;;;;;5050202;28;20229;-83
2023/10/19 12:27:59;;;;;;;1.23;1.20;;;;;;;;;;5050850;28;20217;-83
2023/10/19 12:30:31;;;;;;;2.33;1.42;;;;;;;;;;5050045;28;20313;-83
2023/10/19 12:32:58;;;;;;;2.47;1.25;;;;;;;;;;5050842;28;20206;-83
2023/10/19 12:35:42;;;;;;;1.00;1.00;;;;;;;;;;5050186;28;20859;-83
2023/10/19 12:38:15;;;;;;;2.08;1.35;;;;;;;;;;5050329;28;20257;-83
2023/10/19 12:40:44;;;;;;;1.17;1.08;;;;;;;;;;5050158;28;20232;-84
2023/10/19 12:43:12;;;;;;;1.45;1.35;;;;;;;;;;5052461;28;20686;-84
2023/10/19 12:45:39;;;;;;;2.65;1.75;;;;;;;;;;5053968;28;20295;-84
2023/10/19 12:48:07;;;;;;;1.92;1.33;;;;;;;;;;5053842;28;20221;-83
2023/10/19 12:50:36;;;;;;;1.48;1.33;;;;;;;;;;5053752;28;20261;-84
2023/10/19 12:53:03;;;;;;;3.20;1.52;;;;;;;;;;5053906;28;20209;-83
2023/10/19 12:55:31;;;;;;;1.20;1.20;;;;;;;;;;5053616;28;20230;-83
2023/10/19 12:58:06;;;;;;;3.47;1.55;;;;;;;;;;5053998;28;20310;-83
2023/10/19 13:00:40;;;;;;;2.50;1.45;;;;;;;;;;5053215;28;20243;-83
2023/10/19 13:03:08;;;;;;;2.65;1.45;;;;;;;;;;5054188;28;20209;-83
2023/10/19 13:05:36;;;;;;;1.73;1.60;;;;;;;;;;5053345;28;20229;-83
2023/10/19 13:08:04;;;;;;;2.28;1.48;;;;;;;;;;5053809;28;20205;-83
2023/10/19 13:10:32;;;;;;;2.00;1.50;;;;;;;;;;5053220;28;20221;-84
2023/10/19 13:13:03;;;;;;;1.23;1.23;;;;;;;;;;5053708;28;20214;-83
2023/10/19 13:15:30;;;;;;;2.33;1.38;;;;;;;;;;5053238;28;20226;-83
2023/10/19 13:17:58;;;;;;;4.85;1.48;;;;;;;;;;5053657;28;20210;-83
2023/10/19 13:20:25;;;;;;;3.22;1.67;;;;;;;;;;5053248;28;20238;-83
2023/10/19 13:22:53;;;;;;;1.33;1.15;;;;;;;;;;5053619;28;20649;-83
2023/10/19 13:25:28;;;;;;;1.92;1.67;;;;;;;;;;5052959;28;20210;-83
2023/10/19 13:27:56;;;;;;;1.45;1.35;;;;;;;;;;5053525;28;20264;-83
2023/10/19 13:30:24;;;;;;;2.05;1.42;;;;;;;;;;5053042;28;20260;-83
2023/10/19 13:32:53;;;;;;;2.95;1.67;;;;;;;;;;5053132;28;20202;-83
2023/10/19 13:35:20;;;;;;;2.42;1.60;;;;;;;;;;5053001;28;20202;-84
2023/10/19 13:37:47;;;;;;;1.73;1.60;;;;;;;;;;5053034;28;20217;-84
2023/10/19 13:40:14;;;;;;;2.40;1.70;;;;;;;;;;5052910;28;20244;-85
2023/10/19 13:42:45;;;;;;;1.95;1.85;;;;;;;;;;5053243;28;20206;-84
2023/10/19 13:45:14;;;;;;;2.45;1.88;;;;;;;;;;5053073;28;20339;-84
2023/10/19 13:47:43;;;;;;;2.17;1.95;;;;;;;;;;5053343;28;20210;-84
2023/10/19 13:50:11;;;;;;;2.72;2.03;;;;;;;;;;5052174;28;20226;-84
2023/10/19 13:52:39;;;;;;;1.75;1.65;;;;;;;;;;5053079;28;20209;-84
2023/10/19 13:55:07;;;;;;;2.03;1.85;;;;;;;;;;5051836;28;20572;-82
2023/10/19 13:57:35;;;;;;;3.70;1.90;;;;;;;;;;5053050;28;20590;-81
2023/10/19 14:00:02;;;;;;;2.40;1.88;;;;;;;;;;5052398;28;20719;-81
2023/10/19 14:02:29;;;;;;;2.15;1.95;;;;;;;;;;5052181;28;20230;-81
2023/10/19 14:05:00;;;;;;;3.50;1.70;;;;;;;;;;5052575;28;20197;-81
2023/10/19 14:07:27;;;;;;;2.13;1.92;;;;;;;;;;5052319;28;20230;-81
2023/10/19 14:09:54;;;;;;;1.90;1.80;;;;;;;;;;5052127;28;20224;-81
2023/10/19 14:12:21;;;;;;;3.25;2.13;;;;;;;;;;5051688;28;20234;-81
2023/10/19 14:14:48;;;;;;;2.35;1.92;;;;;;;;;;5052331;28;20215;-80
2023/10/19 14:17:15;;;;;;;2.95;2.00;;;;;;;;;;5060112;28;20245;-81
2023/10/19 14:19:44;;;;;;;4.65;1.92;;;;;;;;;;5044060;28;20266;-81
2023/10/19 14:22:13;;;;;;;4.50;2.90;;;;;;;;;;5051494;28;20658;-81
2023/10/19 14:24:40;;;;;;;2.92;2.00;;;;;;;;;;5052223;28;20649;-81
2023/10/19 14:27:08;;;;;;;2.72;2.53;;;;;;;;;;5051595;28;20229;-80
2023/10/19 14:29:35;;;;;;;5.53;3.17;;;;;;;;;;5054694;28;20317;-81
2023/10/19 14:32:03;;;;;;;5.05;2.92;;;;;;;;;;5056759;28;20230;-81
2023/10/19 14:34:30;;;;;;;3.15;2.80;;;;;;;;;;5070368;28;20209;-81
2023/10/19 14:36:57;;;;;;;2.45;2.25;;;;;;;;;;5066085;28;20234;-81
2023/10/19 14:39:25;;;;;;;2.20;2.00;;;;;;;;;;5051755;28;20611;-81
2023/10/19 14:41:52;;;;;;;1.90;1.80;;;;;;;;;;5051238;28;20260;-81
2023/10/19 14:44:19;;;;;;;2.92;2.05;;;;;;;;;;5051856;28;20205;-81
2023/10/19 14:46:47;;;;;;;1.77;1.65;;;;;;;;;;5051293;28;20232;-81
2023/10/19 14:49:14;;;;;;;1.70;1.60;;;;;;;;;;5051638;28;20224;-81